createdAt,value
2018-03-20T00:00:32.818Z,1.67
2018-03-20T00:01:36.221Z,1.67
2018-03-20T00:02:39.543Z,1.67
2018-03-20T00:03:42.940Z,1.66
2018-03-20T00:04:46.349Z,1.67
2018-03-20T00:05:49.667Z,1.66
2018-03-20T00:06:53.016Z,1.66
2018-03-20T00:07:57.584Z,1.67
2018-03-20T00:09:00.879Z,1.65
2018-03-20T00:10:04.218Z,1.63
2018-03-20T00:11:07.531Z,1.63
2018-03-20T00:12:12.111Z,1.63
2018-03-20T00:13:16.237Z,1.62
2018-03-20T00:14:19.680Z,1.61
2018-03-20T00:15:23.063Z,1.60
2018-03-20T00:16:26.424Z,1.59
2018-03-20T00:17:29.760Z,1.58
2018-03-20T00:18:33.070Z,1.57
2018-03-20T00:19:36.514Z,1.55
2018-03-20T00:20:39.996Z,1.54
2018-03-20T00:21:43.293Z,1.53
2018-03-20T00:22:46.659Z,1.52
2018-03-20T00:23:49.988Z,1.51
2018-03-20T00:24:53.329Z,1.50
2018-03-20T00:25:56.668Z,1.48
2018-03-20T00:27:01.053Z,1.47
2018-03-20T00:28:04.381Z,1.46
2018-03-20T00:29:07.847Z,1.45
2018-03-20T00:30:11.910Z,1.45
2018-03-20T00:31:15.280Z,1.44
2018-03-20T00:32:18.634Z,1.43
2018-03-20T00:33:21.970Z,1.41
2018-03-20T00:34:25.277Z,1.41
2018-03-20T00:35:29.457Z,1.41
2018-03-20T00:36:32.776Z,1.41
2018-03-20T00:37:36.093Z,1.41
2018-03-20T00:38:39.428Z,1.41
2018-03-20T00:39:42.796Z,1.40
2018-03-20T00:40:46.102Z,1.41
2018-03-20T00:41:49.457Z,1.41
2018-03-20T00:42:52.840Z,1.40
2018-03-20T00:43:56.162Z,1.40
2018-03-20T00:44:59.515Z,1.40
2018-03-20T00:46:02.824Z,1.39
2018-03-20T00:47:07.048Z,1.38
2018-03-20T00:48:10.473Z,1.36
2018-03-20T00:49:13.767Z,1.36
2018-03-20T00:50:17.106Z,1.35
2018-03-20T00:51:20.419Z,1.35
2018-03-20T00:52:23.977Z,1.33
2018-03-20T00:53:27.294Z,1.32
2018-03-20T00:54:30.640Z,1.33
2018-03-20T00:55:34.212Z,1.32
2018-03-20T00:56:38.002Z,1.31
2018-03-20T00:57:42.233Z,1.31
2018-03-20T00:58:45.547Z,1.33
2018-03-20T00:59:48.861Z,1.33
2018-03-20T01:00:52.282Z,1.33
2018-03-20T01:01:56.504Z,1.34
2018-03-20T01:03:00.987Z,1.34
2018-03-20T01:04:06.087Z,1.35
2018-03-20T01:05:09.392Z,1.34
2018-03-20T01:06:12.701Z,1.35
2018-03-20T01:07:16.235Z,1.35
2018-03-20T01:08:21.258Z,1.36
2018-03-20T01:09:24.646Z,1.36
2018-03-20T01:10:28.005Z,1.35
2018-03-20T01:11:32.126Z,1.36
2018-03-20T01:12:35.441Z,1.35
2018-03-20T01:13:38.833Z,1.33
2018-03-20T01:14:42.220Z,1.35
2018-03-20T01:15:45.853Z,1.34
2018-03-20T01:16:49.200Z,1.34
2018-03-20T01:17:52.520Z,1.34
2018-03-20T01:18:55.883Z,1.34
2018-03-20T01:19:59.209Z,1.33
2018-03-20T01:21:02.549Z,1.33
2018-03-20T01:22:05.874Z,1.34
2018-03-20T01:23:09.275Z,1.33
2018-03-20T01:24:12.678Z,1.33
2018-03-20T01:25:16.063Z,1.32
2018-03-20T01:26:19.433Z,1.30
2018-03-20T01:27:22.749Z,1.30
2018-03-20T01:28:26.158Z,1.29
2018-03-20T01:29:29.517Z,1.28
2018-03-20T01:30:32.893Z,1.28
2018-03-20T01:31:36.188Z,1.26
2018-03-20T01:32:39.576Z,1.24
2018-03-20T01:33:42.930Z,1.24
2018-03-20T01:34:46.251Z,1.22
2018-03-20T01:35:49.565Z,1.22
2018-03-20T01:36:53.741Z,1.21
2018-03-20T01:37:57.032Z,1.21
2018-03-20T01:39:00.365Z,1.21
2018-03-20T01:40:03.709Z,1.21
2018-03-20T01:41:07.117Z,1.20
2018-03-20T01:42:11.282Z,1.20
2018-03-20T01:43:14.674Z,1.20
2018-03-20T01:44:18.921Z,1.19
2018-03-20T01:45:22.316Z,1.18
2018-03-20T01:46:25.632Z,1.17
2018-03-20T01:47:28.984Z,1.17
2018-03-20T01:48:32.280Z,1.16
2018-03-20T01:49:35.633Z,1.16
2018-03-20T01:50:38.972Z,1.15
2018-03-20T01:51:42.320Z,1.14
2018-03-20T01:52:46.164Z,1.13
2018-03-20T01:53:49.463Z,1.11
2018-03-20T01:54:53.193Z,1.11
2018-03-20T01:55:56.512Z,1.11
2018-03-20T01:56:59.912Z,1.11
2018-03-20T01:58:03.265Z,1.10
2018-03-20T01:59:06.633Z,1.11
2018-03-20T02:00:10.057Z,1.10
2018-03-20T02:01:13.495Z,1.09
2018-03-20T02:02:16.902Z,1.09
2018-03-20T02:03:20.286Z,1.08
2018-03-20T02:04:23.641Z,1.08
2018-03-20T02:05:27.040Z,1.08
2018-03-20T02:06:30.369Z,1.06
2018-03-20T02:07:33.729Z,1.05
2018-03-20T02:08:37.837Z,1.06
2018-03-20T02:09:41.217Z,1.04
2018-03-20T02:10:44.580Z,1.03
2018-03-20T02:11:47.978Z,1.02
2018-03-20T02:12:51.322Z,1.03
2018-03-20T02:13:54.624Z,1.03
2018-03-20T02:14:57.963Z,1.04
2018-03-20T02:16:01.260Z,1.04
2018-03-20T02:17:05.064Z,1.06
2018-03-20T02:18:08.473Z,1.09
2018-03-20T02:19:12.155Z,1.12
2018-03-20T02:20:15.469Z,1.15
2018-03-20T02:21:18.818Z,1.18
2018-03-20T02:22:22.228Z,1.20
2018-03-20T02:23:25.572Z,1.23
2018-03-20T02:24:28.977Z,1.25
2018-03-20T02:25:32.427Z,1.27
2018-03-20T02:26:36.472Z,1.30
2018-03-20T02:27:40.450Z,1.34
2018-03-20T02:28:43.776Z,1.38
2018-03-20T02:29:47.062Z,1.43
2018-03-20T02:30:51.222Z,1.47
2018-03-20T02:31:54.649Z,1.51
2018-03-20T02:32:58.042Z,1.55
2018-03-20T02:34:01.353Z,1.60
2018-03-20T02:35:04.648Z,1.64
2018-03-20T02:36:07.970Z,1.68
2018-03-20T02:37:11.371Z,1.72
2018-03-20T02:38:14.835Z,1.76
2018-03-20T02:39:18.340Z,1.80
2018-03-20T02:40:21.642Z,1.83
2018-03-20T02:41:25.014Z,1.87
2018-03-20T02:42:28.400Z,1.89
2018-03-20T02:43:31.883Z,1.90
2018-03-20T02:44:35.229Z,1.92
2018-03-20T02:45:38.544Z,1.94
2018-03-20T02:46:42.656Z,1.96
2018-03-20T02:47:45.984Z,1.98
2018-03-20T02:48:49.332Z,2.00
2018-03-20T02:49:52.714Z,2.02
2018-03-20T02:50:56.040Z,2.04
2018-03-20T02:51:59.374Z,2.06
2018-03-20T02:53:03.644Z,2.09
2018-03-20T02:54:07.014Z,2.10
2018-03-20T02:55:10.542Z,2.11
2018-03-20T02:56:13.964Z,2.12
2018-03-20T02:57:17.332Z,2.14
2018-03-20T02:58:20.674Z,2.16
2018-03-20T02:59:24.094Z,2.18
2018-03-20T03:00:27.553Z,2.20
2018-03-20T03:01:30.950Z,2.21
2018-03-20T03:02:34.271Z,2.23
2018-03-20T03:03:38.470Z,2.24
2018-03-20T03:04:41.947Z,2.25
2018-03-20T03:05:45.281Z,2.26
2018-03-20T03:06:48.576Z,2.26
2018-03-20T03:07:51.995Z,2.25
2018-03-20T03:08:56.272Z,2.24
2018-03-20T03:09:59.649Z,2.23
2018-03-20T03:11:02.968Z,2.24
2018-03-20T03:12:06.309Z,2.24
2018-03-20T03:13:09.631Z,2.25
2018-03-20T03:14:12.949Z,2.27
2018-03-20T03:15:16.399Z,2.28
2018-03-20T03:16:19.775Z,2.29
2018-03-20T03:17:23.060Z,2.31
2018-03-20T03:18:26.373Z,2.32
2018-03-20T03:19:29.815Z,2.33
2018-03-20T03:20:33.206Z,2.34
2018-03-20T03:21:36.610Z,2.36
2018-03-20T03:22:39.937Z,2.39
2018-03-20T03:23:43.361Z,2.40
2018-03-20T03:24:46.759Z,2.41
2018-03-20T03:25:50.107Z,2.42
2018-03-20T03:26:53.479Z,2.44
2018-03-20T03:27:56.866Z,2.45
2018-03-20T03:29:00.950Z,2.47
2018-03-20T03:30:04.302Z,2.47
2018-03-20T03:31:07.723Z,2.48
2018-03-20T03:32:10.992Z,2.49
2018-03-20T03:33:14.302Z,2.50
2018-03-20T03:34:17.768Z,2.51
2018-03-20T03:35:21.092Z,2.52
2018-03-20T03:36:24.787Z,2.52
2018-03-20T03:37:28.146Z,2.53
2018-03-20T03:38:31.410Z,2.53
2018-03-20T03:39:34.724Z,2.54
2018-03-20T03:40:38.292Z,2.55
2018-03-20T03:41:41.741Z,2.56
2018-03-20T03:42:45.055Z,2.57
2018-03-20T03:43:48.433Z,2.57
2018-03-20T03:44:51.780Z,2.58
2018-03-20T03:45:55.166Z,2.59
2018-03-20T03:46:59.595Z,2.59
2018-03-20T03:48:02.934Z,2.60
2018-03-20T03:49:06.243Z,2.61
2018-03-20T03:50:09.659Z,2.62
2018-03-20T03:51:12.971Z,2.62
2018-03-20T03:52:16.399Z,2.62
2018-03-20T03:53:19.779Z,2.63
2018-03-20T03:54:23.171Z,2.63
2018-03-20T03:55:26.544Z,2.64
2018-03-20T03:56:29.858Z,2.65
2018-03-20T03:57:33.262Z,2.65
2018-03-20T03:58:36.601Z,2.65
2018-03-20T03:59:41.562Z,2.66
2018-03-20T04:00:44.898Z,2.66
2018-03-20T04:01:49.122Z,2.67
2018-03-20T04:02:52.491Z,2.67
2018-03-20T04:03:55.820Z,2.68
2018-03-20T04:04:59.129Z,2.69
2018-03-20T04:06:02.444Z,2.69
2018-03-20T04:07:05.780Z,2.70
2018-03-20T04:08:09.135Z,2.70
2018-03-20T04:09:14.268Z,2.70
2018-03-20T04:10:17.624Z,2.70
2018-03-20T04:11:20.915Z,2.70
2018-03-20T04:12:24.460Z,2.72
2018-03-20T04:13:27.930Z,2.73
2018-03-20T04:14:31.333Z,2.73
2018-03-20T04:15:34.657Z,2.73
2018-03-20T04:16:38.016Z,2.73
2018-03-20T04:17:41.384Z,2.74
2018-03-20T04:18:44.717Z,2.75
2018-03-20T04:19:48.071Z,2.75
2018-03-20T04:20:51.413Z,2.75
2018-03-20T04:21:54.746Z,2.76
2018-03-20T04:22:58.131Z,2.75
2018-03-20T04:24:01.491Z,2.76
2018-03-20T04:25:04.801Z,2.76
2018-03-20T04:26:08.185Z,2.76
2018-03-20T04:27:11.580Z,2.76
2018-03-20T04:28:14.936Z,2.77
2018-03-20T04:29:18.347Z,2.78
2018-03-20T04:30:21.806Z,2.79
2018-03-20T04:31:25.257Z,2.80
2018-03-20T04:32:28.636Z,2.80
2018-03-20T04:33:31.960Z,2.80
2018-03-20T04:34:35.305Z,2.81
2018-03-20T04:35:38.642Z,2.82
2018-03-20T04:36:42.055Z,2.81
2018-03-20T04:37:45.523Z,2.81
2018-03-20T04:38:48.864Z,2.81
2018-03-20T04:39:52.312Z,2.81
2018-03-20T04:40:55.796Z,2.81
2018-03-20T04:41:59.151Z,2.81
2018-03-20T04:43:02.468Z,2.81
2018-03-20T04:44:05.827Z,2.80
2018-03-20T04:45:09.214Z,2.80
2018-03-20T04:46:12.690Z,2.80
2018-03-20T04:47:16.084Z,2.79
2018-03-20T04:48:19.429Z,2.78
2018-03-20T04:49:23.709Z,2.77
2018-03-20T04:50:27.040Z,2.77
2018-03-20T04:51:30.380Z,2.77
2018-03-20T04:52:33.688Z,2.76
2018-03-20T04:53:37.006Z,2.76
2018-03-20T04:54:41.065Z,2.76
2018-03-20T04:55:44.545Z,2.75
2018-03-20T04:56:47.838Z,2.75
2018-03-20T04:57:51.249Z,2.75
2018-03-20T04:58:54.592Z,2.74
2018-03-20T04:59:57.945Z,2.75
2018-03-20T05:01:01.336Z,2.74
2018-03-20T05:02:04.649Z,2.74
2018-03-20T05:03:08.092Z,2.75
2018-03-20T05:04:11.484Z,2.74
2018-03-20T05:05:14.857Z,2.74
2018-03-20T05:06:18.192Z,2.75
2018-03-20T05:07:21.495Z,2.75
2018-03-20T05:08:24.833Z,2.75
2018-03-20T05:09:29.082Z,2.75
2018-03-20T05:10:32.462Z,2.75
2018-03-20T05:11:35.820Z,2.75
2018-03-20T05:12:39.193Z,2.75
2018-03-20T05:13:42.517Z,2.75
2018-03-20T05:14:45.892Z,2.75
2018-03-20T05:15:49.332Z,2.76
2018-03-20T05:16:52.751Z,2.76
2018-03-20T05:17:56.733Z,2.76
2018-03-20T05:19:05.712Z,2.76
2018-03-20T05:20:14.518Z,2.75
2018-03-20T05:21:24.167Z,2.75
2018-03-20T05:22:33.140Z,2.74
2018-03-20T05:23:39.091Z,2.74
2018-03-20T05:24:42.410Z,2.74
2018-03-20T05:25:45.844Z,2.75
2018-03-20T05:26:49.143Z,2.76
2018-03-20T05:27:52.532Z,2.77
2018-03-20T05:28:55.975Z,2.78
2018-03-20T05:29:59.333Z,2.78
2018-03-20T05:31:02.685Z,2.80
2018-03-20T05:32:06.230Z,2.81
2018-03-20T05:33:09.571Z,2.81
2018-03-20T05:34:13.107Z,2.82
2018-03-20T05:35:16.560Z,2.82
2018-03-20T05:36:19.960Z,2.82
2018-03-20T05:37:23.331Z,2.83
2018-03-20T05:38:26.781Z,2.83
2018-03-20T05:39:30.136Z,2.83
2018-03-20T05:40:33.728Z,2.83
2018-03-20T05:41:37.064Z,2.83
2018-03-20T05:42:40.631Z,2.84
2018-03-20T05:43:44.072Z,2.85
2018-03-20T05:44:48.381Z,2.85
2018-03-20T05:45:51.817Z,2.86
2018-03-20T05:47:02.545Z,2.86
2018-03-20T05:49:57.406Z,2.84
2018-03-20T05:52:40.797Z,2.84
2018-03-20T05:53:44.188Z,2.85
2018-03-20T05:54:47.689Z,2.86
2018-03-20T05:55:51.431Z,2.86
2018-03-20T05:56:55.016Z,2.87
2018-03-20T05:57:58.456Z,2.88
2018-03-20T05:59:01.833Z,2.89
2018-03-20T06:00:05.198Z,2.89
2018-03-20T06:01:08.615Z,2.90
2018-03-20T06:02:12.035Z,2.90
2018-03-20T06:03:15.321Z,2.91
2018-03-20T06:04:18.650Z,2.92
2018-03-20T06:05:22.222Z,2.93
2018-03-20T06:06:25.645Z,2.94
2018-03-20T06:07:29.127Z,2.94
2018-03-20T06:08:32.468Z,2.94
2018-03-20T06:09:35.863Z,2.95
2018-03-20T06:10:39.199Z,2.95
2018-03-20T06:11:42.668Z,2.95
2018-03-20T06:12:46.891Z,2.95
2018-03-20T06:13:50.303Z,2.96
2018-03-20T06:14:54.387Z,2.97
2018-03-20T06:15:57.801Z,2.96
2018-03-20T06:17:01.150Z,2.98
2018-03-20T06:18:04.481Z,2.98
2018-03-20T06:19:08.712Z,2.98
2018-03-20T06:20:12.047Z,2.98
2018-03-20T06:21:15.458Z,2.98
2018-03-20T06:22:18.884Z,3.00
2018-03-20T06:23:23.097Z,2.99
2018-03-20T06:24:26.407Z,3.00
2018-03-20T06:25:29.708Z,3.00
2018-03-20T06:26:33.188Z,3.01
2018-03-20T06:27:36.615Z,3.01
2018-03-20T06:28:40.009Z,3.02
2018-03-20T06:29:43.387Z,3.02
2018-03-20T06:30:46.790Z,3.04
2018-03-20T06:31:50.148Z,3.04
2018-03-20T06:32:53.580Z,3.05
2018-03-20T06:33:56.896Z,3.06
2018-03-20T06:35:00.578Z,3.07
2018-03-20T06:36:03.909Z,3.07
2018-03-20T06:37:08.829Z,3.09
2018-03-20T06:38:12.696Z,3.09
2018-03-20T06:39:16.133Z,3.11
2018-03-20T06:40:19.490Z,3.13
2018-03-20T06:41:22.826Z,3.13
2018-03-20T06:42:26.180Z,3.14
2018-03-20T06:43:29.509Z,3.14
2018-03-20T06:44:32.869Z,3.15
2018-03-20T06:45:36.277Z,3.15
2018-03-20T06:46:39.595Z,3.17
2018-03-20T06:47:43.062Z,3.18
2018-03-20T06:48:46.871Z,3.20
2018-03-20T06:49:50.474Z,3.21
2018-03-20T06:50:53.790Z,3.22
2018-03-20T06:51:57.317Z,3.24
2018-03-20T06:53:00.632Z,3.25
2018-03-20T06:54:04.025Z,3.27
2018-03-20T06:55:07.356Z,3.29
2018-03-20T06:56:10.843Z,3.30
2018-03-20T06:57:14.192Z,3.33
2018-03-20T06:58:17.599Z,3.35
2018-03-20T06:59:22.026Z,3.38
2018-03-20T07:00:26.038Z,3.41
2018-03-20T07:01:29.451Z,3.43
2018-03-20T07:02:32.794Z,3.45
2018-03-20T07:03:36.172Z,3.47
2018-03-20T07:04:39.533Z,3.50
2018-03-20T07:05:43.972Z,3.53
2018-03-20T07:06:47.373Z,3.55
2018-03-20T07:07:50.721Z,3.57
2018-03-20T07:08:54.231Z,3.59
2018-03-20T07:09:58.526Z,3.62
2018-03-20T07:11:01.845Z,3.66
2018-03-20T07:12:05.191Z,3.68
2018-03-20T07:13:08.573Z,3.71
2018-03-20T07:14:11.888Z,3.74
2018-03-20T07:15:15.257Z,3.76
2018-03-20T07:16:18.579Z,3.77
2018-03-20T07:17:22.029Z,3.79
2018-03-20T07:18:25.428Z,3.80
2018-03-20T07:19:28.757Z,3.82
2018-03-20T07:20:32.105Z,3.82
2018-03-20T07:21:36.213Z,3.83
2018-03-20T07:22:39.526Z,3.84
2018-03-20T07:23:42.878Z,3.86
2018-03-20T07:24:46.224Z,3.88
2018-03-20T07:25:50.138Z,3.89
2018-03-20T07:26:53.505Z,3.93
2018-03-20T07:27:56.846Z,3.95
2018-03-20T07:29:00.212Z,3.99
2018-03-20T07:30:03.537Z,4.01
2018-03-20T07:31:06.879Z,4.04
2018-03-20T07:32:10.224Z,4.06
2018-03-20T07:33:14.165Z,4.09
2018-03-20T07:34:17.975Z,4.13
2018-03-20T07:35:22.699Z,4.15
2018-03-20T07:36:28.090Z,4.18
2018-03-20T07:37:31.555Z,4.23
2018-03-20T07:38:36.399Z,4.26
2018-03-20T07:39:40.746Z,4.31
2018-03-20T07:40:44.144Z,4.35
2018-03-20T07:41:47.597Z,4.37
2018-03-20T07:42:50.950Z,4.39
2018-03-20T07:43:54.370Z,4.41
2018-03-20T07:44:57.737Z,4.43
2018-03-20T07:46:01.049Z,4.43
2018-03-20T07:47:04.449Z,4.45
2018-03-20T07:48:07.739Z,4.45
2018-03-20T07:49:11.073Z,4.45
2018-03-20T07:50:14.448Z,4.45
2018-03-20T07:51:17.992Z,4.45
2018-03-20T07:52:21.507Z,4.45
2018-03-20T07:53:24.812Z,4.45
2018-03-20T07:54:28.631Z,4.45
2018-03-20T07:55:31.953Z,4.45
2018-03-20T07:56:35.321Z,4.45
2018-03-20T07:57:38.756Z,4.44
2018-03-20T07:58:42.149Z,4.43
2018-03-20T07:59:46.147Z,4.43
2018-03-20T08:00:49.482Z,4.42
2018-03-20T08:01:54.204Z,4.43
2018-03-20T08:02:57.680Z,4.43
2018-03-20T08:04:01.869Z,4.44
2018-03-20T08:05:05.249Z,4.46
2018-03-20T08:06:08.600Z,4.48
2018-03-20T08:07:12.560Z,4.50
2018-03-20T08:08:16.003Z,4.52
2018-03-20T08:09:19.346Z,4.54
2018-03-20T08:10:22.887Z,4.57
2018-03-20T08:11:26.176Z,4.60
2018-03-20T08:12:29.492Z,4.61
2018-03-20T08:13:32.928Z,4.64
2018-03-20T08:14:36.232Z,4.69
2018-03-20T08:15:39.778Z,4.73
2018-03-20T08:16:43.268Z,4.77
2018-03-20T08:17:46.613Z,4.83
2018-03-20T08:18:49.998Z,4.89
2018-03-20T08:19:53.450Z,4.95
2018-03-20T08:20:56.751Z,5.01
2018-03-20T08:22:00.107Z,5.08
2018-03-20T08:23:03.448Z,5.11
2018-03-20T08:24:06.881Z,5.11
2018-03-20T08:25:10.273Z,5.12
2018-03-20T08:26:13.583Z,5.13
2018-03-20T08:27:16.896Z,5.14
2018-03-20T08:28:20.236Z,5.14
2018-03-20T08:29:24.569Z,5.13
2018-03-20T08:30:28.000Z,5.12
2018-03-20T08:31:31.331Z,5.10
2018-03-20T08:32:34.795Z,5.07
2018-03-20T08:33:38.173Z,5.06
2018-03-20T08:34:42.370Z,5.05
2018-03-20T08:35:45.766Z,5.05
2018-03-20T08:36:49.091Z,5.05
2018-03-20T08:37:52.769Z,5.04
2018-03-20T08:38:56.111Z,5.05
2018-03-20T08:40:00.313Z,5.06
2018-03-20T08:41:03.690Z,5.07
2018-03-20T08:42:07.681Z,5.07
2018-03-20T08:43:11.013Z,5.08
2018-03-20T08:44:14.369Z,5.10
2018-03-20T08:45:17.814Z,5.12
2018-03-20T08:46:21.127Z,5.16
2018-03-20T08:47:24.456Z,5.18
2018-03-20T08:48:27.796Z,5.21
2018-03-20T08:49:31.143Z,5.24
2018-03-20T08:50:34.519Z,5.27
2018-03-20T08:51:37.862Z,5.31
2018-03-20T08:52:41.266Z,5.37
2018-03-20T08:53:44.613Z,5.43
2018-03-20T08:54:48.018Z,5.49
2018-03-20T08:55:51.524Z,5.52
2018-03-20T08:56:55.029Z,5.57
2018-03-20T08:57:58.382Z,5.61
2018-03-20T08:59:01.765Z,5.64
2018-03-20T09:00:05.144Z,5.69
2018-03-20T09:01:08.496Z,5.74
2018-03-20T09:02:11.813Z,5.78
2018-03-20T09:03:15.312Z,5.85
2018-03-20T09:04:18.656Z,5.91
2018-03-20T09:05:22.095Z,5.96
2018-03-20T09:06:25.715Z,5.99
2018-03-20T09:07:29.080Z,6.00
2018-03-20T09:08:32.431Z,6.01
2018-03-20T09:09:37.569Z,6.03
2018-03-20T09:10:41.459Z,6.06
2018-03-20T09:11:45.156Z,6.07
2018-03-20T09:12:48.497Z,6.09
2018-03-20T09:13:51.884Z,6.11
2018-03-20T09:14:55.237Z,6.13
2018-03-20T09:15:58.545Z,6.14
2018-03-20T09:17:01.908Z,6.14
2018-03-20T09:18:05.236Z,6.14
2018-03-20T09:19:08.637Z,6.14
2018-03-20T09:20:12.671Z,6.13
2018-03-20T09:21:15.993Z,6.13
2018-03-20T09:22:20.310Z,6.11
2018-03-20T09:23:23.636Z,6.10
2018-03-20T09:24:27.019Z,6.06
2018-03-20T09:25:30.292Z,6.02
2018-03-20T09:26:33.696Z,6.00
2018-03-20T09:27:37.029Z,5.98
2018-03-20T09:28:40.415Z,5.94
2018-03-20T09:29:43.772Z,5.94
2018-03-20T09:30:47.120Z,5.92
2018-03-20T09:31:50.480Z,5.91
2018-03-20T09:32:53.882Z,5.90
2018-03-20T09:33:57.204Z,5.91
2018-03-20T09:35:00.745Z,5.90
2018-03-20T09:36:04.057Z,5.88
2018-03-20T09:37:07.444Z,5.86
2018-03-20T09:38:10.796Z,5.85
2018-03-20T09:39:14.224Z,5.83
2018-03-20T09:40:17.524Z,5.82
2018-03-20T09:41:20.886Z,5.83
2018-03-20T09:42:24.220Z,5.83
2018-03-20T09:43:27.598Z,5.83
2018-03-20T09:44:30.942Z,5.84
2018-03-20T09:45:34.335Z,5.85
2018-03-20T09:46:38.121Z,5.85
2018-03-20T09:47:41.462Z,5.87
2018-03-20T09:48:44.869Z,5.90
2018-03-20T09:49:48.259Z,5.92
2018-03-20T09:50:51.603Z,5.94
2018-03-20T09:51:55.026Z,5.97
2018-03-20T09:52:59.222Z,5.98
2018-03-20T09:54:02.605Z,6.00
2018-03-20T09:55:05.896Z,6.06
2018-03-20T09:56:10.355Z,6.12
2018-03-20T09:57:13.728Z,6.16
2018-03-20T09:58:17.109Z,6.21
2018-03-20T09:59:20.809Z,6.26
2018-03-20T10:00:24.197Z,6.30
2018-03-20T10:01:27.531Z,6.33
2018-03-20T10:02:30.885Z,6.34
2018-03-20T10:03:34.376Z,6.36
2018-03-20T10:04:37.765Z,6.36
2018-03-20T10:05:41.315Z,6.37
2018-03-20T10:06:44.693Z,6.38
2018-03-20T10:07:48.101Z,6.37
2018-03-20T10:08:51.437Z,6.39
2018-03-20T10:09:55.510Z,6.39
2018-03-20T10:10:59.885Z,6.40
2018-03-20T10:12:03.236Z,6.41
2018-03-20T10:13:06.660Z,6.41
2018-03-20T10:14:10.059Z,6.42
2018-03-20T10:15:13.534Z,6.41
2018-03-20T10:16:17.076Z,6.42
2018-03-20T10:17:20.484Z,6.45
2018-03-20T10:18:28.807Z,6.47
2018-03-20T10:19:32.404Z,6.49
2018-03-20T10:20:37.432Z,6.49
2018-03-20T10:21:40.762Z,6.50
2018-03-20T10:22:44.104Z,6.51
2018-03-20T10:23:47.466Z,6.51
2018-03-20T10:24:50.825Z,6.50
2018-03-20T10:25:54.252Z,6.51
2018-03-20T10:26:57.591Z,6.51
2018-03-20T10:28:00.935Z,6.52
2018-03-20T10:29:04.284Z,6.53
2018-03-20T10:30:07.668Z,6.54
2018-03-20T10:31:11.236Z,6.56
2018-03-20T10:32:14.617Z,6.57
2018-03-20T10:33:17.926Z,6.58
2018-03-20T10:34:21.347Z,6.60
2018-03-20T10:35:24.770Z,6.62
2018-03-20T10:36:28.138Z,6.64
2018-03-20T10:37:31.440Z,6.66
2018-03-20T10:38:34.766Z,6.66
2018-03-20T10:39:38.085Z,6.66
2018-03-20T10:40:41.393Z,6.69
2018-03-20T10:41:44.758Z,6.73
2018-03-20T10:42:48.044Z,6.74
2018-03-20T10:43:53.027Z,6.78
2018-03-20T10:44:56.313Z,6.79
2018-03-20T10:45:59.694Z,6.80
2018-03-20T10:47:03.768Z,6.82
2018-03-20T10:48:07.117Z,6.85
2018-03-20T10:49:10.557Z,6.88
2018-03-20T10:50:13.878Z,6.88
2018-03-20T10:51:17.241Z,6.88
2018-03-20T10:52:20.605Z,6.87
2018-03-20T10:53:24.041Z,6.89
2018-03-20T10:54:27.422Z,6.91
2018-03-20T10:55:30.709Z,6.92
2018-03-20T10:56:34.018Z,6.92
2018-03-20T10:57:37.386Z,6.94
2018-03-20T10:58:40.668Z,6.95
2018-03-20T10:59:44.074Z,6.98
2018-03-20T11:00:50.235Z,7.01
2018-03-20T11:01:53.528Z,7.02
2018-03-20T11:02:57.016Z,7.04
2018-03-20T11:04:00.297Z,7.05
2018-03-20T11:05:03.613Z,7.06
2018-03-20T11:06:06.967Z,7.07
2018-03-20T11:07:10.347Z,7.08
2018-03-20T11:08:13.769Z,7.11
2018-03-20T11:09:17.082Z,7.12
2018-03-20T11:10:20.381Z,7.13
2018-03-20T11:11:24.564Z,7.14
2018-03-20T11:12:27.929Z,7.15
2018-03-20T11:13:31.239Z,7.17
2018-03-20T11:14:34.600Z,7.17
2018-03-20T11:15:37.964Z,7.18
2018-03-20T11:16:41.326Z,7.19
2018-03-20T11:17:44.660Z,7.21
2018-03-20T11:18:48.702Z,7.24
2018-03-20T11:19:52.070Z,7.26
2018-03-20T11:20:55.436Z,7.27
2018-03-20T11:21:59.331Z,7.31
2018-03-20T11:23:02.720Z,7.32
2018-03-20T11:24:06.125Z,7.34
2018-03-20T11:25:09.428Z,7.34
2018-03-20T11:26:12.747Z,7.36
2018-03-20T11:27:16.127Z,7.36
2018-03-20T11:28:19.442Z,7.37
2018-03-20T11:29:22.789Z,7.38
2018-03-20T11:30:26.141Z,7.39
2018-03-20T11:31:29.445Z,7.41
2018-03-20T11:32:32.785Z,7.43
2018-03-20T11:33:36.131Z,7.44
2018-03-20T11:34:39.518Z,7.46
2018-03-20T11:35:42.844Z,7.49
2018-03-20T11:36:46.156Z,7.52
2018-03-20T11:37:49.471Z,7.54
2018-03-20T11:38:52.787Z,7.55
2018-03-20T11:39:56.134Z,7.57
2018-03-20T11:40:59.460Z,7.59
2018-03-20T11:42:02.786Z,7.62
2018-03-20T11:43:06.129Z,7.65
2018-03-20T11:44:09.460Z,7.68
2018-03-20T11:45:12.800Z,7.69
2018-03-20T11:46:16.283Z,7.70
2018-03-20T11:47:19.588Z,7.71
2018-03-20T11:48:22.896Z,7.72
2018-03-20T11:49:26.301Z,7.73
2018-03-20T11:50:29.623Z,7.75
2018-03-20T11:51:32.943Z,7.76
2018-03-20T11:52:36.287Z,7.77
2018-03-20T11:53:39.656Z,7.79
2018-03-20T11:54:42.949Z,7.81
2018-03-20T11:55:46.411Z,7.82
2018-03-20T11:56:49.705Z,7.84
2018-03-20T11:57:53.054Z,7.85
2018-03-20T11:58:56.382Z,7.88
2018-03-20T11:59:59.725Z,7.90
2018-03-20T12:01:03.087Z,7.92
2018-03-20T12:02:07.446Z,7.93
2018-03-20T12:03:10.703Z,7.94
2018-03-20T12:04:14.067Z,7.96
2018-03-20T12:05:17.360Z,7.96
2018-03-20T12:06:20.722Z,7.99
2018-03-20T12:07:24.124Z,8.00
2018-03-20T12:08:39.306Z,8.03
2018-03-20T12:09:48.783Z,8.01
2018-03-20T12:10:52.082Z,8.02
2018-03-20T12:11:57.433Z,8.04
2018-03-20T12:13:00.859Z,8.05
2018-03-20T12:14:04.896Z,8.06
2018-03-20T12:15:11.082Z,8.08
2018-03-20T12:16:14.380Z,8.09
2018-03-20T12:17:19.041Z,8.10
2018-03-20T12:18:22.379Z,8.11
2018-03-20T12:19:25.836Z,8.13
2018-03-20T12:20:29.206Z,8.17
2018-03-20T12:21:32.599Z,8.20
2018-03-20T12:22:36.030Z,8.20
2018-03-20T12:23:40.328Z,8.21
2018-03-20T12:24:45.186Z,8.22
2018-03-20T12:25:49.496Z,8.22
2018-03-20T12:26:52.837Z,8.20
2018-03-20T12:27:56.196Z,8.22
2018-03-20T12:28:59.492Z,8.25
2018-03-20T12:30:02.906Z,8.27
2018-03-20T12:31:06.212Z,8.28
2018-03-20T12:32:09.587Z,8.29
2018-03-20T12:33:13.022Z,8.32
2018-03-20T12:34:16.412Z,8.33
2018-03-20T12:35:19.706Z,8.36
2018-03-20T12:36:23.049Z,8.37
2018-03-20T12:37:26.400Z,8.38
2018-03-20T12:38:29.809Z,8.40
2018-03-20T12:39:33.134Z,8.42
2018-03-20T12:40:36.504Z,8.45
2018-03-20T12:41:39.799Z,8.47
2018-03-20T12:42:43.132Z,8.47
2018-03-20T12:43:46.468Z,8.51
2018-03-20T12:44:49.782Z,8.54
2018-03-20T12:45:53.198Z,8.57
2018-03-20T12:46:56.585Z,8.61
2018-03-20T12:47:59.930Z,8.61
2018-03-20T12:49:03.332Z,8.64
2018-03-20T12:50:07.396Z,8.68
2018-03-20T12:51:10.711Z,8.73
2018-03-20T12:52:14.060Z,8.75
2018-03-20T12:53:17.416Z,8.76
2018-03-20T12:54:20.748Z,8.77
2018-03-20T12:55:24.122Z,8.78
2018-03-20T12:56:27.428Z,8.78
2018-03-20T12:57:30.810Z,8.78
2018-03-20T12:58:34.123Z,8.78
2018-03-20T12:59:37.495Z,8.80
2018-03-20T13:00:40.802Z,8.81
2018-03-20T13:01:44.108Z,8.80
2018-03-20T13:02:47.420Z,8.81
2018-03-20T13:03:50.758Z,8.81
2018-03-20T13:04:54.109Z,8.80
2018-03-20T13:05:57.472Z,8.79
2018-03-20T13:07:00.849Z,8.81
2018-03-20T13:08:04.299Z,8.82
2018-03-20T13:09:07.694Z,8.81
2018-03-20T13:10:11.166Z,8.81
2018-03-20T13:11:14.503Z,8.83
2018-03-20T13:12:19.605Z,8.85
2018-03-20T13:13:22.956Z,8.86
2018-03-20T13:14:26.306Z,8.85
2018-03-20T13:15:29.726Z,8.87
2018-03-20T13:16:33.110Z,8.87
2018-03-20T13:17:36.466Z,8.88
2018-03-20T13:18:39.764Z,8.89
2018-03-20T13:19:43.273Z,8.91
2018-03-20T13:20:46.589Z,8.90
2018-03-20T13:21:49.995Z,8.90
2018-03-20T13:22:54.802Z,8.92
2018-03-20T13:23:58.803Z,8.92
2018-03-20T13:25:02.151Z,8.92
2018-03-20T13:26:05.490Z,8.93
2018-03-20T13:27:09.038Z,8.95
2018-03-20T13:28:12.550Z,8.97
2018-03-20T13:29:15.874Z,8.99
2018-03-20T13:30:19.181Z,9.01
2018-03-20T13:31:22.512Z,9.02
2018-03-20T13:32:26.072Z,9.05
2018-03-20T13:33:29.361Z,9.06
2018-03-20T13:34:32.720Z,9.06
2018-03-20T13:35:36.060Z,9.08
2018-03-20T13:36:39.395Z,9.08
2018-03-20T13:37:42.764Z,9.10
2018-03-20T13:38:46.075Z,9.11
2018-03-20T13:39:49.377Z,9.12
2018-03-20T13:40:52.713Z,9.14
2018-03-20T13:41:56.131Z,9.13
2018-03-20T13:42:59.480Z,9.15
2018-03-20T13:44:02.851Z,9.15
2018-03-20T13:45:06.195Z,9.13
2018-03-20T13:46:09.504Z,9.14
2018-03-20T13:47:12.934Z,9.15
2018-03-20T13:48:16.272Z,9.16
2018-03-20T13:49:19.626Z,9.16
2018-03-20T13:50:22.996Z,9.19
2018-03-20T13:51:26.333Z,9.22
2018-03-20T13:52:29.735Z,9.22
2018-03-20T13:53:33.102Z,9.22
2018-03-20T13:54:36.464Z,9.22
2018-03-20T13:55:39.896Z,9.23
2018-03-20T13:56:43.255Z,9.23
2018-03-20T13:57:46.582Z,9.24
2018-03-20T13:58:49.949Z,9.25
2018-03-20T13:59:53.276Z,9.26
2018-03-20T14:00:56.754Z,9.26
2018-03-20T14:02:00.089Z,9.27
2018-03-20T14:03:03.401Z,9.28
2018-03-20T14:04:06.820Z,9.29
2018-03-20T14:05:10.141Z,9.32
2018-03-20T14:06:13.631Z,9.34
2018-03-20T14:07:16.917Z,9.37
2018-03-20T14:08:20.314Z,9.39
2018-03-20T14:09:23.674Z,9.41